Time;durP1;ratioP1;P1;durP2;ratioP2;P2;SDS_P1;SDS_P2;PMS_P1;PMS_P2;Temp;Humidity;BMP_temperature;BMP_pressure;BME280_temperature;BME280_humidity;BME280_pressure;Samples;Min_cycle;Max_cycle;Signal;HPM_P1;HPM_P2
2023/05/03 00:00:54;;;;;;;5.30;2.70;;;;;;;13.31;46.26;100384.89;105857;1254;72519;-72
2023/05/03 00:03:24;;;;;;;5.10;2.90;;;;;;;13.32;46.25;100379.12;105817;1254;61531;-71
2023/05/03 00:05:51;;;;;;;10.00;2.80;;;;;;;13.33;46.23;100379.39;105945;1256;60517;-72
2023/05/03 00:08:18;;;;;;;12.10;3.30;;;;;;;13.33;46.29;100379.51;106025;1254;76026;-74
2023/05/03 00:10:45;;;;;;;8.40;3.40;;;;;;;13.31;46.30;100376.81;106218;1253;72454;-75
2023/05/03 00:13:12;;;;;;;9.30;3.40;;;;;;;13.31;46.23;100379.86;106146;1254;74792;-72
2023/05/03 00:15:39;;;;;;;12.70;4.40;;;;;;;13.31;46.18;100385.06;106100;1254;62317;-73
2023/05/03 00:18:06;;;;;;;10.40;3.60;;;;;;;13.32;46.23;100384.78;106037;1254;60566;-70
2023/05/03 00:20:33;;;;;;;10.20;3.90;;;;;;;13.32;46.07;100385.98;106340;1256;76961;-70
2023/05/03 00:23:01;;;;;;;5.90;4.00;;;;;;;13.35;46.12;100384.23;106509;1254;71399;-73
2023/05/03 00:25:28;;;;;;;12.70;3.90;;;;;;;13.38;45.99;100380.04;106168;1259;74609;-74
2023/05/03 00:27:56;;;;;;;6.60;3.20;;;;;;;13.40;46.00;100371.83;106251;1260;61059;-72
2023/05/03 00:30:24;;;;;;;8.70;3.20;;;;;;;13.41;45.96;100376.25;106291;1254;60415;-73
2023/05/03 00:32:51;;;;;;;5.20;2.80;;;;;;;13.42;45.97;100366.37;106254;1259;76082;-73
2023/05/03 00:35:18;;;;;;;4.80;2.50;;;;;;;13.41;46.02;100372.75;106397;1254;71317;-74
2023/05/03 00:37:45;;;;;;;4.00;2.60;;;;;;;13.41;46.06;100369.62;106280;1256;75184;-72
2023/05/03 00:40:14;;;;;;;4.90;2.10;;;;;;;13.40;46.07;100366.65;106168;1254;62240;-72
2023/05/03 00:42:41;;;;;;;4.60;2.00;;;;;;;13.40;46.17;100364.91;106471;1254;60614;-73
2023/05/03 00:45:08;;;;;;;4.70;1.90;;;;;;;13.38;46.27;100373.59;106752;1254;74846;-73
2023/05/03 00:47:35;;;;;;;4.40;2.10;;;;;;;13.38;46.26;100365.09;106174;1254;71169;-73
2023/05/03 00:50:03;;;;;;;4.20;2.00;;;;;;;13.37;46.44;100365.16;106448;1254;74541;-73
2023/05/03 00:52:30;;;;;;;6.70;2.40;;;;;;;13.37;46.44;100369.09;106908;1256;61296;-74
2023/05/03 00:54:57;;;;;;;3.90;2.20;;;;;;;13.36;46.59;100367.19;106535;1256;62134;-74
2023/05/03 00:57:24;;;;;;;4.70;1.90;;;;;;;13.35;46.57;100359.66;105825;1254;72828;-71
2023/05/03 00:59:51;;;;;;;6.80;2.50;;;;;;;13.34;46.67;100363.23;106349;1254;73007;-72
2023/05/03 01:02:18;;;;;;;3.30;2.10;;;;;;;13.31;46.75;100358.23;106175;1254;74403;-73
2023/05/03 01:04:46;;;;;;;6.00;2.20;;;;;;;13.28;46.89;100359.88;106518;1254;62032;-70
2023/05/03 01:07:31;;;;;;;2.70;2.00;;;;;;;13.26;47.19;100363.23;106261;1253;61896;-72
2023/05/03 01:10:37;;;;;;;5.80;2.50;;;;;;;13.24;47.19;100356.25;106732;1254;73037;-71
2023/05/03 01:13:29;;;;;;;4.00;2.20;;;;;;;13.22;47.38;100355.29;106535;1256;72710;-71
2023/05/03 01:16:09;;;;;;;6.60;2.80;;;;;;;13.18;47.40;100349.96;106202;1259;75010;-74
2023/05/03 01:18:40;;;;;;;3.90;2.00;;;;;;;13.16;47.54;100347.91;108190;1254;62169;-78
2023/05/03 01:21:08;;;;;;;4.90;1.90;;;;;;;13.13;47.62;100356.74;107788;1254;61209;-78
2023/05/03 01:23:39;;;;;;;3.80;2.10;;;;;;;13.12;47.75;100351.54;107546;1254;75926;-73
2023/05/03 01:26:20;;;;;;;5.50;1.90;;;;;;;13.12;47.64;100343.73;106968;1259;70495;-75
2023/05/03 01:28:47;;;;;;;4.10;2.00;;;;;;;13.10;47.79;100341.48;106602;1257;75105;-74
2023/05/03 01:31:27;;;;;;;5.30;2.00;;;;;;;13.08;47.87;100347.69;106481;1259;62403;-75
2023/05/03 01:34:09;;;;;;;6.60;2.30;;;;;;;13.06;47.96;100339.09;107538;1253;62547;-76
2023/05/03 01:36:36;;;;;;;5.20;2.00;;;;;;;13.04;48.13;100339.12;107272;1252;74285;-77
2023/05/03 01:39:06;;;;;;;5.80;2.50;;;;;;;13.00;48.18;100335.06;107646;1254;69328;-75
2023/05/03 01:41:35;;;;;;;6.00;2.40;;;;;;;12.97;48.24;100337.66;107918;1254;73416;-73
2023/05/03 01:44:02;;;;;;;7.40;2.80;;;;;;;12.96;48.29;100333.39;107404;1253;60681;-74
2023/05/03 01:46:29;;;;;;;9.80;2.70;;;;;;;12.94;48.36;100329.50;107327;1258;60329;-74
2023/05/03 01:48:56;;;;;;;8.90;2.50;;;;;;;12.92;48.37;100328.01;106359;1254;73730;-73
2023/05/03 01:51:22;;;;;;;7.90;2.50;;;;;;;12.90;48.41;100326.05;106424;1254;71944;-71
2023/05/03 01:53:49;;;;;;;10.50;2.80;;;;;;;12.88;48.62;100323.64;107316;1254;73406;-74
2023/05/03 01:56:16;;;;;;;6.10;2.60;;;;;;;12.86;48.55;100321.30;107111;1254;61393;-72
2023/05/03 01:58:43;;;;;;;4.90;2.60;;;;;;;12.84;48.65;100324.77;106930;1260;61148;-73
2023/05/03 02:01:10;;;;;;;8.10;2.00;;;;;;;12.81;48.65;100321.48;106483;1253;74626;-74
2023/05/03 02:03:37;;;;;;;6.50;2.00;;;;;;;12.79;48.77;100320.25;106632;1257;71010;-75
2023/05/03 02:06:04;;;;;;;6.90;2.40;;;;;;;12.77;48.78;100322.79;106997;1253;73602;-72
2023/05/03 02:08:31;;;;;;;7.40;2.40;;;;;;;12.75;48.95;100331.05;106627;1259;61333;-75
2023/05/03 02:10:58;;;;;;;4.00;2.20;;;;;;;12.72;49.13;100331.00;106930;1254;60331;-75
2023/05/03 02:13:25;;;;;;;5.10;2.20;;;;;;;12.69;49.14;100330.08;106592;1252;75785;-77
2023/05/03 02:15:52;;;;;;;6.60;2.00;;;;;;;12.66;49.28;100340.02;105804;1259;72298;-75
2023/05/03 02:18:19;;;;;;;8.40;2.50;;;;;;;12.63;49.36;100334.02;106032;1254;72394;-74
2023/05/03 02:20:46;;;;;;;9.60;2.60;;;;;;;12.60;49.58;100333.73;106005;1256;61063;-75
2023/05/03 02:23:13;;;;;;;2.90;2.10;;;;;;;12.56;49.75;100343.20;105910;1255;60532;-72
2023/05/03 02:25:40;;;;;;;9.70;2.80;;;;;;;12.52;49.78;100350.13;106034;1259;75652;-74
2023/05/03 02:28:07;;;;;;;3.80;2.30;;;;;;;12.48;49.82;100346.98;106113;1259;72300;-75
2023/05/03 02:30:35;;;;;;;8.90;2.50;;;;;;;12.44;49.95;100343.88;105886;1259;73766;-75
2023/05/03 02:33:01;;;;;;;5.70;2.10;;;;;;;12.39;50.18;100344.69;105735;1254;61236;-77
2023/05/03 02:35:29;;;;;;;6.80;2.60;;;;;;;12.35;50.28;100343.58;106007;1259;61102;-76
2023/05/03 02:37:56;;;;;;;9.20;2.50;;;;;;;12.30;50.29;100348.20;105620;1263;75567;-74
2023/05/03 02:40:24;;;;;;;9.20;2.30;;;;;;;12.25;50.73;100348.78;105942;1259;70389;-76
2023/05/03 02:42:52;;;;;;;7.10;2.60;;;;;;;12.19;50.78;100347.19;105694;1260;73742;-76
2023/05/03 02:45:21;;;;;;;4.40;2.30;;;;;;;12.15;51.11;100354.06;105866;1254;62308;-71
2023/05/03 02:47:48;;;;;;;4.20;2.70;;;;;;;12.11;51.08;100353.05;105894;1260;60906;-72
2023/05/03 02:50:15;;;;;;;8.90;2.30;;;;;;;12.06;51.17;100349.67;105822;1253;72977;-73
2023/05/03 02:52:42;;;;;;;5.90;2.50;;;;;;;12.02;51.31;100351.34;105999;1256;71278;-73
2023/05/03 02:55:09;;;;;;;9.60;2.50;;;;;;;11.98;51.40;100345.90;105949;1259;73614;-74
2023/05/03 02:57:36;;;;;;;5.70;2.60;;;;;;;11.95;51.65;100342.10;105776;1259;60415;-78
2023/05/03 03:00:04;;;;;;;5.80;2.80;;;;;;;11.93;51.79;100342.00;105759;1259;60500;-76
2023/05/03 03:02:32;;;;;;;6.40;2.30;;;;;;;11.92;51.71;100339.80;106076;1255;75295;-73
2023/05/03 03:04:59;;;;;;;7.00;2.20;;;;;;;11.91;51.96;100339.75;105794;1259;69062;-75
2023/05/03 03:07:27;;;;;;;3.20;2.20;;;;;;;11.89;52.03;100334.23;105853;1258;74908;-74
2023/05/03 03:09:54;;;;;;;5.60;2.20;;;;;;;11.87;51.91;100337.13;105922;1255;61479;-72
2023/05/03 03:12:21;;;;;;;8.80;2.60;;;;;;;11.85;52.11;100339.11;105954;1255;61958;-75
2023/05/03 03:14:48;;;;;;;4.70;2.50;;;;;;;11.83;52.23;100337.35;105885;1254;73796;-74
2023/05/03 03:17:15;;;;;;;9.90;2.90;;;;;;;11.81;52.26;100330.25;105893;1259;71129;-72
2023/05/03 03:19:42;;;;;;;7.20;2.70;;;;;;;11.78;52.57;100340.13;105711;1262;72726;-71
2023/05/03 03:22:09;;;;;;;5.10;2.50;;;;;;;11.76;52.74;100337.16;105846;1259;60488;-72
2023/05/03 03:24:37;;;;;;;5.80;2.40;;;;;;;11.74;52.90;100342.90;105352;1261;62025;-71
2023/05/03 03:27:04;;;;;;;6.30;2.60;;;;;;;11.73;52.95;100339.67;105816;1260;72847;-74
2023/05/03 03:29:31;;;;;;;6.70;2.70;;;;;;;11.72;52.80;100339.77;105883;1254;72053;-72
2023/05/03 03:31:59;;;;;;;4.40;2.50;;;;;;;11.71;53.16;100342.80;105853;1259;72837;-74
2023/05/03 03:34:26;;;;;;;8.40;2.80;;;;;;;11.71;53.27;100341.30;105774;1260;60562;-72
2023/05/03 03:36:53;;;;;;;10.50;3.10;;;;;;;11.71;53.29;100349.09;105717;1254;62298;-72
2023/05/03 03:39:20;;;;;;;9.50;2.70;;;;;;;11.69;53.31;100338.93;105860;1259;73956;-73
2023/05/03 03:41:47;;;;;;;7.60;2.40;;;;;;;11.69;53.32;100342.32;105988;1254;72210;-72
2023/05/03 03:44:14;;;;;;;4.50;2.40;;;;;;;11.69;53.48;100340.59;105891;1260;74869;-71
2023/05/03 03:46:41;;;;;;;5.00;2.60;;;;;;;11.69;53.50;100341.36;105688;1261;62833;-73
2023/05/03 03:49:08;;;;;;;4.30;2.20;;;;;;;11.68;53.55;100342.80;105716;1255;62350;-71
2023/05/03 03:51:35;;;;;;;5.00;2.30;;;;;;;11.68;53.43;100345.85;105975;1253;74196;-72
2023/05/03 03:54:02;;;;;;;5.30;2.60;;;;;;;11.68;53.45;100347.73;105899;1254;70279;-70
2023/05/03 03:56:31;;;;;;;5.90;2.70;;;;;;;11.70;53.47;100356.45;105854;1259;71509;-70
2023/05/03 03:58:58;;;;;;;5.80;2.70;;;;;;;11.72;53.30;100350.42;105465;1255;62032;-73
2023/05/03 04:01:25;;;;;;;4.30;2.60;;;;;;;11.74;53.41;100349.63;105608;1255;62596;-73
2023/05/03 04:03:52;;;;;;;6.50;2.50;;;;;;;11.76;53.37;100346.73;105829;1255;71731;-72
2023/05/03 04:06:19;;;;;;;9.80;2.60;;;;;;;11.79;53.38;100347.68;106060;1254;72832;-71
2023/05/03 04:08:48;;;;;;;3.90;2.40;;;;;;;11.81;53.12;100350.29;105616;1260;73888;-72
2023/05/03 04:11:15;;;;;;;6.90;3.00;;;;;;;11.84;53.02;100349.16;105777;1256;62349;-73
2023/05/03 04:13:47;;;;;;;5.60;2.30;;;;;;;11.89;52.71;100352.89;105898;1260;62470;-72
2023/05/03 04:16:14;;;;;;;6.80;3.00;;;;;;;11.93;52.81;100349.42;105788;1260;74073;-72
2023/05/03 04:18:42;;;;;;;5.80;2.60;;;;;;;11.97;52.60;100351.70;105881;1260;71366;-73
2023/05/03 04:21:09;;;;;;;5.90;2.70;;;;;;;12.00;52.23;100355.64;105908;1256;73986;-74
2023/05/03 04:23:37;;;;;;;10.00;3.00;;;;;;;12.04;52.08;100359.30;105683;1259;61348;-74
2023/05/03 04:26:05;;;;;;;3.80;2.70;;;;;;;12.10;51.89;100362.05;105832;1254;60392;-74
2023/05/03 04:28:34;;;;;;;7.10;2.40;;;;;;;12.24;51.29;100366.77;105783;1254;75860;-73
2023/05/03 04:31:01;;;;;;;7.10;2.50;;;;;;;12.38;51.10;100365.08;105782;1254;71410;-76
2023/05/03 04:33:30;;;;;;;6.60;2.20;;;;;;;12.47;50.79;100365.52;105912;1257;74972;-75
2023/05/03 04:36:01;;;;;;;4.40;2.00;;;;;;;12.52;50.51;100364.11;106021;1254;60891;-76
2023/05/03 04:38:28;;;;;;;7.60;2.40;;;;;;;12.58;50.39;100360.65;106024;1257;62615;-73
2023/05/03 04:40:57;;;;;;;6.30;2.40;;;;;;;12.64;50.20;100370.27;105515;1262;74673;-74
2023/05/03 04:43:24;;;;;;;6.30;2.20;;;;;;;12.75;50.05;100366.24;105788;1253;72161;-74
2023/05/03 04:45:52;;;;;;;5.80;2.30;;;;;;;12.90;49.90;100366.94;105840;1254;72624;-73
2023/05/03 04:48:21;;;;;;;7.40;2.50;;;;;;;12.97;49.52;100365.08;105684;1260;61286;-75
2023/05/03 04:50:48;;;;;;;6.10;2.80;;;;;;;13.02;49.05;100374.93;105836;1260;59968;-76
2023/05/03 04:53:16;;;;;;;4.50;2.40;;;;;;;13.06;48.91;100373.89;105839;1259;73862;-73
2023/05/03 04:55:47;;;;;;;6.00;2.50;;;;;;;13.11;48.76;100373.18;105839;1260;72636;-74
2023/05/03 04:58:14;;;;;;;5.50;2.30;;;;;;;13.15;48.70;100380.80;105704;1260;74813;-71
2023/05/03 05:00:41;;;;;;;4.50;1.90;;;;;;;13.17;48.73;100375.52;106029;1257;60421;-72
2023/05/03 05:03:13;;;;;;;9.10;2.70;;;;;;;13.22;48.87;100380.13;105730;1252;61307;-75
2023/05/03 05:05:40;;;;;;;6.50;2.30;;;;;;;13.27;48.80;100384.02;105789;1260;75961;-75
2023/05/03 05:08:08;;;;;;;5.70;2.30;;;;;;;13.32;49.03;100382.11;105934;1260;71867;-73
2023/05/03 05:10:41;;;;;;;12.70;2.50;;;;;;;13.37;49.00;100379.45;105908;1254;74947;-72
2023/05/03 05:13:10;;;;;;;6.50;2.50;;;;;;;13.42;49.04;100378.65;105632;1260;61134;-72
2023/05/03 05:15:37;;;;;;;10.90;3.00;;;;;;;13.48;48.94;100376.44;105753;1260;60548;-75
2023/05/03 05:18:04;;;;;;;5.10;2.70;;;;;;;13.55;48.89;100385.93;105824;1254;73679;-72
2023/05/03 05:20:31;;;;;;;9.20;2.70;;;;;;;13.63;48.72;100387.56;105876;1260;71320;-72
2023/05/03 05:22:58;;;;;;;9.30;2.80;;;;;;;13.70;48.48;100390.14;105833;1258;74620;-73
2023/05/03 05:25:26;;;;;;;7.10;2.20;;;;;;;13.75;48.38;100383.68;105795;1260;61264;-74
2023/05/03 05:27:53;;;;;;;6.80;2.20;;;;;;;13.82;48.59;100374.40;105775;1254;60844;-73
2023/05/03 05:30:22;;;;;;;6.60;2.50;;;;;;;13.91;48.50;100371.86;105786;1258;74564;-73
2023/05/03 05:32:49;;;;;;;8.40;2.50;;;;;;;14.02;48.10;100374.11;105862;1258;69636;-73
2023/05/03 05:35:18;;;;;;;3.90;1.80;;;;;;;14.11;47.70;100374.30;105838;1259;72299;-73
2023/05/03 05:37:45;;;;;;;8.30;2.60;;;;;;;14.20;47.31;100378.08;105828;1261;61260;-74
2023/05/03 05:40:14;;;;;;;8.10;3.00;;;;;;;14.28;47.25;100369.45;105785;1254;60508;-73
2023/05/03 05:42:47;;;;;;;8.00;3.00;;;;;;;14.38;46.93;100361.92;105892;1255;72453;-71
2023/05/03 05:45:14;;;;;;;6.10;2.50;;;;;;;14.47;46.70;100366.25;105884;1255;72259;-72
2023/05/03 05:47:41;;;;;;;7.50;2.60;;;;;;;14.55;46.26;100365.13;105802;1257;73837;-74
2023/05/03 05:50:09;;;;;;;11.30;3.50;;;;;;;14.62;46.18;100352.27;105643;1254;62504;-72
2023/05/03 05:52:50;;;;;;;18.10;5.20;;;;;;;14.69;45.34;100376.56;105896;1255;60563;-73
2023/05/03 05:55:17;;;;;;;14.90;4.60;;;;;;;14.71;45.47;100362.14;105807;1254;74220;-72
2023/05/03 05:57:45;;;;;;;15.90;4.20;;;;;;;14.76;45.49;100359.54;105723;1261;72334;-73
2023/05/03 06:00:14;;;;;;;13.10;3.80;;;;;;;14.80;45.20;100358.54;105883;1260;73588;-73
2023/05/03 06:02:43;;;;;;;11.20;3.50;;;;;;;14.88;45.60;100347.80;105874;1258;61475;-74
2023/05/03 06:05:14;;;;;;;27.60;5.90;;;;;;;14.98;45.55;100348.73;105784;1260;216158;-73
2023/05/03 06:09:07;;;;;;;18.20;5.80;;;;;;;15.14;45.01;100354.66;102512;1294;602565;-74
2023/05/03 06:11:51;;;;;;;18.80;6.10;;;;;;;15.23;44.77;100350.77;105101;1269;61281;-73
2023/05/03 06:14:19;;;;;;;16.50;5.30;;;;;;;15.30;44.84;100347.28;105134;1265;61104;-73
2023/05/03 06:16:46;;;;;;;16.40;4.90;;;;;;;15.38;44.56;100348.77;105024;1269;72292;-73
2023/05/03 06:19:13;;;;;;;19.10;4.30;;;;;;;15.47;43.88;100357.15;105001;1273;68763;-71
2023/05/03 06:21:40;;;;;;;12.20;3.70;;;;;;;15.56;43.42;100348.34;104960;1264;194049;-72
2023/05/03 06:24:07;;;;;;;16.50;3.50;;;;;;;15.65;43.71;100328.75;105198;1264;59794;-73
2023/05/03 06:26:34;;;;;;;11.30;3.00;;;;;;;15.74;43.82;100324.27;105094;1265;61601;-73
2023/05/03 06:29:02;;;;;;;10.70;3.60;;;;;;;15.87;43.36;100339.06;105059;1268;72853;-71
2023/05/03 06:31:29;;;;;;;9.00;2.70;;;;;;;15.99;43.24;100328.60;105336;1265;71628;-72
2023/05/03 06:33:57;;;;;;;8.60;2.50;;;;;;;16.07;42.54;100345.94;105075;1264;73507;-72
2023/05/03 06:36:24;;;;;;;7.40;2.70;;;;;;;16.14;42.58;100320.85;105033;1266;60187;-72
2023/05/03 06:38:52;;;;;;;13.60;2.80;;;;;;;16.21;42.29;100319.56;105182;1264;59643;-73
2023/05/03 06:41:19;;;;;;;9.00;2.50;;;;;;;16.33;41.62;100336.67;105105;1265;73360;-71
2023/05/03 06:43:46;;;;;;;3.90;2.20;;;;;;;16.43;40.97;100329.88;105026;1266;70831;-72
2023/05/03 06:46:12;;;;;;;6.90;2.20;;;;;;;16.52;40.84;100319.81;104990;1264;72880;-73
2023/05/03 06:48:39;;;;;;;15.90;2.40;;;;;;;16.61;40.20;100317.98;104925;1265;60406;-73
2023/05/03 06:51:06;;;;;;;10.90;2.20;;;;;;;16.72;40.28;100313.42;105097;1268;60140;-73
2023/05/03 06:53:33;;;;;;;10.00;2.60;;;;;;;16.86;40.25;100316.32;105094;1267;71492;-72
2023/05/03 06:56:02;;;;;;;4.50;2.10;;;;;;;17.00;39.88;100329.11;105175;1264;70563;-72
2023/05/03 06:58:29;;;;;;;9.30;2.20;;;;;;;17.12;40.10;100323.11;105325;1270;73686;-73
2023/05/03 07:00:56;;;;;;;6.70;2.40;;;;;;;17.23;39.73;100323.88;105258;1268;61203;-70
2023/05/03 07:03:25;;;;;;;14.50;2.20;;;;;;;17.35;39.24;100333.98;105615;1262;59743;-74
2023/05/03 07:05:52;;;;;;;6.30;2.80;;;;;;;17.46;38.46;100330.08;105452;1262;73086;-73
2023/05/03 07:08:19;;;;;;;14.60;2.60;;;;;;;17.55;37.42;100342.19;105386;1265;71751;-72
2023/05/03 07:10:46;;;;;;;18.50;2.90;;;;;;;17.62;36.27;100322.27;105522;1264;71960;-74
2023/05/03 07:13:15;;;;;;;7.10;1.80;;;;;;;17.68;35.07;100351.06;105371;1263;61264;-74
2023/05/03 07:15:42;;;;;;;14.60;3.00;;;;;;;17.70;34.98;100321.92;105532;1267;60091;-71
2023/05/03 07:18:09;;;;;;;10.10;2.10;;;;;;;17.71;34.62;100315.52;104914;1260;73299;-72
2023/05/03 07:20:37;;;;;;;5.90;2.20;;;;;;;17.73;34.70;100336.09;105499;1262;71355;-70
2023/05/03 07:23:05;;;;;;;10.30;3.10;;;;;;;17.72;34.69;100316.48;104902;1262;73589;-71
2023/05/03 07:25:32;;;;;;;6.30;2.00;;;;;;;17.75;35.17;100307.52;105636;1261;62774;-72
2023/05/03 07:28:00;;;;;;;8.40;2.10;;;;;;;17.83;35.59;100304.40;105491;1266;59790;-75
2023/05/03 07:30:28;;;;;;;6.10;2.30;;;;;;;17.96;35.19;100322.80;105448;1260;72874;-75
2023/05/03 07:32:55;;;;;;;10.20;1.90;;;;;;;18.02;34.66;100309.23;105685;1262;69947;-76
2023/05/03 07:35:22;;;;;;;18.00;2.70;;;;;;;18.04;34.44;100322.40;105523;1260;72162;-74
2023/05/03 07:37:49;;;;;;;8.00;1.90;;;;;;;18.08;34.56;100302.14;105681;1260;59780;-78
2023/05/03 07:40:16;;;;;;;9.10;1.80;;;;;;;18.12;35.01;100328.80;105484;1262;59716;-74
2023/05/03 07:42:43;;;;;;;7.20;2.20;;;;;;;18.15;35.48;100315.14;105505;1265;73738;-73
2023/05/03 07:45:10;;;;;;;6.50;1.60;;;;;;;18.10;36.42;100325.48;105423;1262;69156;-76
2023/05/03 07:47:38;;;;;;;6.10;2.20;;;;;;;18.05;36.93;100323.06;105489;1265;75503;-74
2023/05/03 07:50:06;;;;;;;12.50;2.40;;;;;;;18.05;37.01;100294.45;105479;1262;60359;-71
2023/05/03 07:52:36;;;;;;;10.10;2.70;;;;;;;18.11;37.04;100292.80;106256;1254;61448;-71
2023/05/03 07:55:03;;;;;;;5.60;2.40;;;;;;;18.20;36.92;100313.08;105956;1255;73081;-71
2023/05/03 07:57:30;;;;;;;7.10;2.70;;;;;;;18.25;37.07;100299.14;105887;1256;71299;-72
2023/05/03 07:59:57;;;;;;;2.50;1.60;;;;;;;18.28;37.27;100292.45;105894;1253;72877;-74
2023/05/03 08:02:24;;;;;;;5.90;2.10;;;;;;;18.36;37.36;100293.90;105721;1253;59586;-69
2023/05/03 08:04:50;;;;;;;7.50;2.20;;;;;;;18.49;37.31;100295.98;105749;1253;60327;-73
2023/05/03 08:07:17;;;;;;;7.70;2.50;;;;;;;18.58;37.22;100313.37;105770;1258;73302;-74
2023/05/03 08:09:46;;;;;;;8.00;2.50;;;;;;;18.60;37.30;100313.62;106060;1253;70502;-74
2023/05/03 08:12:13;;;;;;;8.20;2.20;;;;;;;18.60;37.35;100304.64;105989;1256;73760;-73
2023/05/03 08:14:40;;;;;;;8.00;2.00;;;;;;;18.61;37.47;100309.39;105956;1256;59818;-74
2023/05/03 08:17:06;;;;;;;5.80;2.00;;;;;;;18.60;37.54;100314.49;105786;1253;61654;-73
2023/05/03 08:19:33;;;;;;;7.70;2.10;;;;;;;18.61;37.66;100310.30;105861;1256;72512;-72
2023/05/03 08:22:00;;;;;;;8.20;2.60;;;;;;;18.64;37.73;100291.36;105673;1260;69524;-72
2023/05/03 08:24:26;;;;;;;8.30;2.00;;;;;;;18.74;37.85;100292.00;105838;1253;59695;-71
2023/05/03 08:26:54;;;;;;;6.20;2.50;;;;;;;18.87;37.71;100301.42;105868;1256;59590;-73
2023/05/03 08:29:20;;;;;;;11.10;2.80;;;;;;;18.98;37.93;100304.27;105707;1254;60097;-73
2023/05/03 08:31:47;;;;;;;13.90;3.00;;;;;;;19.11;37.96;100304.12;105926;1258;59547;-72
2023/05/03 08:34:14;;;;;;;12.40;3.10;;;;;;;19.24;37.78;100316.89;105819;1259;70200;-72
2023/05/03 08:36:41;;;;;;;6.10;2.50;;;;;;;19.28;37.67;100321.03;105841;1253;71699;-72
2023/05/03 08:39:09;;;;;;;10.40;2.70;;;;;;;19.23;37.73;100332.93;105812;1258;59633;-72
2023/05/03 08:41:36;;;;;;;11.40;2.70;;;;;;;19.26;37.91;100309.06;105887;1253;59745;-71
2023/05/03 08:44:04;;;;;;;7.00;2.20;;;;;;;19.33;37.98;100290.09;105654;1258;74032;-72
2023/05/03 08:46:35;;;;;;;9.60;3.00;;;;;;;19.46;38.00;100302.11;105641;1254;68667;-74
2023/05/03 08:49:02;;;;;;;7.60;2.70;;;;;;;19.58;37.80;100310.20;105641;1254;72312;-74
2023/05/03 08:51:30;;;;;;;6.90;2.60;;;;;;;19.62;37.65;100292.94;105870;1257;60098;-74
2023/05/03 08:53:57;;;;;;;6.70;2.60;;;;;;;19.68;37.61;100290.16;105837;1253;61794;-77
2023/05/03 08:56:29;;;;;;;5.40;2.40;;;;;;;19.79;37.49;100300.13;105870;1254;74095;-72
2023/05/03 08:59:00;;;;;;;6.00;2.60;;;;;;;19.90;37.52;100301.01;105823;1256;71264;-72
2023/05/03 09:01:27;;;;;;;8.90;2.80;;;;;;;20.01;37.49;100285.83;105879;1254;71544;-76
2023/05/03 09:03:54;;;;;;;5.50;2.60;;;;;;;20.21;37.16;100308.61;105816;1259;59712;-74
2023/05/03 09:06:24;;;;;;;7.70;2.30;;;;;;;20.40;36.93;100292.08;105910;1258;59620;-70
2023/05/03 09:08:53;;;;;;;9.70;2.50;;;;;;;20.60;36.34;100310.79;106089;1257;72473;-72
2023/05/03 09:11:20;;;;;;;15.90;3.50;;;;;;;20.62;36.31;100301.04;105791;1256;69464;-74
2023/05/03 09:13:52;;;;;;;4.00;2.20;;;;;;;20.63;36.31;100320.62;105885;1253;73459;-73
2023/05/03 09:16:23;;;;;;;7.80;2.60;;;;;;;20.75;36.29;100295.02;105760;1258;59674;-72
2023/05/03 09:19:00;;;;;;;7.00;2.80;;;;;;;21.05;36.08;100301.05;105783;1256;60433;-72
2023/05/03 09:21:27;;;;;;;12.30;2.50;;;;;;;21.44;35.55;100296.80;106045;1257;73481;-74
2023/05/03 09:23:54;;;;;;;6.00;2.50;;;;;;;21.73;34.96;100318.66;105896;1254;71898;-73
2023/05/03 09:26:34;;;;;;;7.10;2.80;;;;;;;21.98;34.85;100296.34;105882;1253;73127;-72
2023/05/03 09:29:04;;;;;;;9.90;3.20;;;;;;;22.27;34.53;100311.13;105657;1258;59741;-73
2023/05/03 09:31:32;;;;;;;10.20;2.90;;;;;;;22.57;34.08;100300.20;106000;1253;60443;-74
2023/05/03 09:33:59;;;;;;;9.30;3.00;;;;;;;22.91;33.78;100304.75;105915;1256;72083;-72
2023/05/03 09:36:28;;;;;;;5.10;2.70;;;;;;;23.15;33.34;100306.98;105944;1253;70280;-75
2023/05/03 09:38:55;;;;;;;3.50;2.30;;;;;;;23.12;33.19;100315.86;105733;1256;73667;-74
2023/05/03 09:41:28;;;;;;;8.10;2.90;;;;;;;23.06;33.44;100308.09;105970;1257;60276;-73
2023/05/03 09:43:57;;;;;;;6.80;2.70;;;;;;;23.18;33.47;100309.80;105960;1257;60693;-72
2023/05/03 09:46:24;;;;;;;11.30;2.90;;;;;;;23.39;33.09;100306.63;106097;1253;72047;-70
2023/05/03 09:48:54;;;;;;;14.00;3.20;;;;;;;23.62;32.97;100290.52;107379;1253;69919;-74
2023/05/03 09:51:21;;;;;;;8.00;3.30;;;;;;;23.98;32.83;100298.64;105782;1260;73519;-73
2023/05/03 09:53:47;;;;;;;8.30;3.20;;;;;;;24.39;32.45;100292.33;105735;1258;60782;-74
2023/05/03 09:56:16;;;;;;;6.00;2.80;;;;;;;24.86;31.98;100288.94;105630;1260;61282;-72
2023/05/03 09:58:42;;;;;;;6.90;3.20;;;;;;;25.34;31.36;100299.66;105947;1254;74094;-69
2023/05/03 10:01:09;;;;;;;8.40;2.70;;;;;;;25.55;30.95;100305.10;105970;1253;71421;-69
2023/05/03 10:03:40;;;;;;;4.20;2.70;;;;;;;25.59;30.98;100296.55;106105;1254;71648;-72
2023/05/03 10:06:24;;;;;;;4.80;2.60;;;;;;;25.68;30.97;100292.73;105962;1253;60726;-72
2023/05/03 10:09:28;;;;;;;7.60;3.00;;;;;;;25.84;30.70;100290.89;105745;1254;60003;-72
2023/05/03 10:11:58;;;;;;;4.40;3.10;;;;;;;25.96;30.55;100282.45;105965;1254;73314;-72
2023/05/03 10:14:25;;;;;;;5.00;2.80;;;;;;;26.06;30.85;100281.36;105731;1253;71897;-70
2023/05/03 10:17:07;;;;;;;4.40;2.70;;;;;;;26.23;30.85;100285.92;106116;1255;73596;-70
2023/05/03 10:19:55;;;;;;;6.70;2.90;;;;;;;26.20;30.51;100299.06;105813;1254;60628;-70
2023/05/03 10:22:22;;;;;;;6.90;2.90;;;;;;;25.92;30.80;100312.39;105829;1253;60482;-71
2023/05/03 10:24:59;;;;;;;7.50;3.10;;;;;;;25.66;30.94;100303.60;105800;1253;72666;-71
2023/05/03 10:27:42;;;;;;;9.60;3.20;;;;;;;25.61;30.93;100298.54;105911;1254;69800;-70
2023/05/03 10:30:25;;;;;;;3.60;2.20;;;;;;;25.64;30.96;100293.95;106197;1256;71140;-72
2023/05/03 10:32:51;;;;;;;7.20;2.10;;;;;;;25.77;31.12;100311.08;105937;1253;61688;-71
2023/05/03 10:35:18;;;;;;;7.30;2.60;;;;;;;25.88;30.55;100310.55;105708;1253;59249;-69
2023/05/03 10:37:47;;;;;;;10.40;3.10;;;;;;;26.00;30.59;100296.16;105660;1257;74124;-70
2023/05/03 10:40:15;;;;;;;3.50;2.50;;;;;;;26.07;30.37;100312.50;105485;1259;71161;-72
2023/05/03 10:42:49;;;;;;;5.40;2.80;;;;;;;25.94;30.41;100308.55;105620;1256;72541;-71
2023/05/03 10:45:27;;;;;;;4.80;2.90;;;;;;;25.87;30.53;100302.31;105775;1253;60401;-70
2023/05/03 10:48:12;;;;;;;4.00;2.50;;;;;;;25.92;30.50;100301.19;106066;1257;60426;-72
2023/05/03 10:50:38;;;;;;;4.40;2.50;;;;;;;25.92;30.58;100294.38;105742;1253;73172;-70
2023/05/03 10:53:05;;;;;;;7.90;2.60;;;;;;;25.98;30.72;100284.05;105856;1253;69972;-70
2023/05/03 10:55:33;;;;;;;8.60;3.10;;;;;;;26.20;30.80;100282.07;106021;1253;73610;-73
2023/05/03 10:58:00;;;;;;;3.40;2.40;;;;;;;26.50;30.39;100280.52;105816;1257;60451;-70
2023/05/03 11:00:33;;;;;;;6.50;2.50;;;;;;;26.63;30.11;100296.73;105924;1253;60437;-72
2023/05/03 11:03:18;;;;;;;4.60;2.70;;;;;;;26.62;30.08;100280.27;105789;1253;75070;-69
2023/05/03 11:05:46;;;;;;;5.30;2.70;;;;;;;26.62;30.10;100284.36;105665;1253;69216;-73
2023/05/03 11:08:17;;;;;;;6.50;3.30;;;;;;;26.66;29.92;100289.62;105654;1259;72678;-73
2023/05/03 11:10:49;;;;;;;7.50;3.00;;;;;;;26.80;30.19;100270.47;105386;1256;60512;-73
2023/05/03 11:13:17;;;;;;;3.80;2.60;;;;;;;27.16;30.15;100267.84;105907;1256;60448;-70
2023/05/03 11:15:44;;;;;;;9.70;3.00;;;;;;;27.45;29.63;100287.67;105851;1256;74089;-72
2023/05/03 11:18:14;;;;;;;8.20;2.70;;;;;;;27.57;29.60;100268.02;105510;1254;71551;-71
2023/05/03 11:20:40;;;;;;;5.20;2.80;;;;;;;27.75;29.34;100269.16;105642;1256;73196;-70
2023/05/03 11:23:07;;;;;;;6.90;2.80;;;;;;;27.96;29.32;100263.77;105574;1254;60417;-70